createdAt,value
2023-01-08T00:01:30.668Z,12.10
2023-01-08T00:03:57.591Z,14.00
2023-01-08T00:06:25.372Z,14.30
2023-01-08T00:08:52.321Z,12.50
2023-01-08T00:11:22.365Z,13.60
2023-01-08T00:13:52.653Z,13.10
2023-01-08T00:16:22.488Z,12.00
2023-01-08T00:18:51.040Z,12.10
2023-01-08T00:21:20.224Z,12.30
2023-01-08T00:23:49.677Z,13.50
2023-01-08T00:26:16.655Z,14.00
2023-01-08T00:28:43.619Z,12.10
2023-01-08T00:31:13.444Z,12.10
2023-01-08T00:33:41.467Z,13.10
2023-01-08T00:36:11.734Z,13.40
2023-01-08T00:38:39.256Z,12.30
2023-01-08T00:41:06.941Z,12.30
2023-01-08T00:43:37.364Z,13.50
2023-01-08T00:46:05.981Z,12.40
2023-01-08T00:48:40.745Z,12.50
2023-01-08T00:51:09.761Z,12.40
2023-01-08T00:53:38.160Z,12.40
2023-01-08T00:56:10.384Z,13.50
2023-01-08T00:58:39.136Z,12.50
2023-01-08T01:01:15.818Z,11.70
2023-01-08T01:03:43.251Z,12.40
2023-01-08T01:06:12.427Z,14.10
2023-01-08T01:08:40.881Z,13.60
2023-01-08T01:11:11.228Z,12.50
2023-01-08T01:13:38.221Z,14.20
2023-01-08T01:16:05.714Z,13.80
2023-01-08T01:18:32.760Z,12.40
2023-01-08T01:20:59.871Z,13.90
2023-01-08T01:23:26.888Z,12.50
2023-01-08T01:25:56.472Z,13.30
2023-01-08T01:28:23.694Z,12.40
2023-01-08T01:30:57.733Z,12.40
2023-01-08T01:33:25.246Z,12.40
2023-01-08T01:36:01.232Z,12.40
2023-01-08T01:38:29.762Z,12.40
2023-01-08T01:40:56.773Z,13.70
2023-01-08T01:43:42.490Z,13.20
2023-01-08T01:46:38.805Z,14.00
2023-01-08T01:49:22.791Z,12.30
2023-01-08T01:52:02.353Z,12.30
2023-01-08T01:54:32.739Z,13.50
2023-01-08T01:57:02.392Z,12.10
2023-01-08T01:59:30.032Z,11.10
2023-01-08T02:01:58.316Z,11.90
2023-01-08T02:04:25.397Z,11.30
2023-01-08T02:07:18.404Z,11.70
2023-01-08T02:10:18.527Z,11.60
2023-01-08T02:12:55.323Z,11.50
2023-01-08T02:15:34.265Z,11.40
2023-01-08T02:18:30.178Z,11.30
2023-01-08T02:21:08.989Z,11.20
2023-01-08T02:24:03.133Z,11.10
2023-01-08T02:26:37.073Z,11.10
2023-01-08T02:29:23.706Z,12.40
2023-01-08T02:31:51.781Z,11.10
2023-01-08T02:34:18.649Z,10.90
2023-01-08T02:36:50.397Z,10.80
2023-01-08T02:39:28.454Z,13.00
2023-01-08T02:42:24.022Z,10.80
2023-01-08T02:45:19.042Z,10.80
2023-01-08T02:48:17.986Z,10.70
2023-01-08T02:51:01.683Z,10.70
2023-01-08T02:53:34.971Z,10.60
2023-01-08T02:56:09.648Z,10.70
2023-01-08T02:58:39.319Z,10.60
2023-01-08T03:01:11.628Z,10.60
2023-01-08T03:03:44.341Z,10.60
2023-01-08T03:06:17.110Z,10.60
2023-01-08T03:08:48.969Z,10.60
2023-01-08T03:11:20.920Z,12.10
2023-01-08T03:14:00.162Z,11.60
2023-01-08T03:16:41.528Z,10.50
2023-01-08T03:19:48.687Z,10.50
2023-01-08T03:22:18.535Z,10.50
2023-01-08T03:24:51.736Z,10.50
2023-01-08T03:27:27.018Z,10.40
2023-01-08T03:29:58.377Z,10.50
2023-01-08T03:32:29.417Z,10.40
2023-01-08T03:34:59.942Z,12.00
2023-01-08T03:37:35.596Z,10.40
2023-01-08T03:40:12.716Z,10.40
2023-01-08T03:42:40.371Z,10.40
2023-01-08T03:45:08.383Z,10.40
2023-01-08T03:47:38.244Z,10.40
2023-01-08T03:50:11.429Z,10.40
2023-01-08T03:52:38.527Z,10.40
2023-01-08T03:55:05.927Z,10.40
2023-01-08T03:57:32.881Z,10.40
2023-01-08T03:59:59.923Z,10.40
2023-01-08T04:02:27.001Z,11.20
2023-01-08T04:04:53.922Z,10.40
2023-01-08T04:07:21.221Z,10.50
2023-01-08T04:09:48.077Z,10.50
2023-01-08T04:12:15.038Z,10.50
2023-01-08T04:14:41.901Z,10.50
2023-01-08T04:17:13.346Z,10.50
2023-01-08T04:19:40.340Z,10.50
2023-01-08T04:22:10.540Z,10.40
2023-01-08T04:24:37.603Z,11.10
2023-01-08T04:27:05.185Z,11.80
2023-01-08T04:29:32.159Z,10.40
2023-01-08T04:31:59.845Z,10.40
2023-01-08T04:34:26.930Z,10.50
2023-01-08T04:36:53.740Z,10.50
2023-01-08T04:39:20.617Z,12.20
2023-01-08T04:41:47.568Z,10.50
2023-01-08T04:44:14.461Z,10.50
2023-01-08T04:46:41.295Z,10.50
2023-01-08T04:49:08.733Z,12.50
2023-01-08T04:51:35.644Z,10.50
2023-01-08T04:54:02.751Z,10.50
2023-01-08T04:56:30.018Z,11.30
2023-01-08T04:58:58.497Z,10.40
2023-01-08T05:01:27.928Z,10.40
2023-01-08T05:03:58.365Z,10.40
2023-01-08T05:06:28.187Z,10.40
2023-01-08T05:08:55.333Z,10.40
2023-01-08T05:11:22.549Z,12.30
2023-01-08T05:13:51.605Z,10.40
2023-01-08T05:16:18.947Z,10.40
2023-01-08T05:18:46.177Z,10.40
2023-01-08T05:21:13.854Z,10.40
2023-01-08T05:23:47.730Z,10.40
2023-01-08T05:26:16.225Z,10.40
2023-01-08T05:28:43.680Z,10.40
2023-01-08T05:31:11.744Z,10.40
2023-01-08T05:33:39.970Z,10.40
2023-01-08T05:36:09.411Z,10.40
2023-01-08T05:38:36.931Z,10.40
2023-01-08T05:41:04.869Z,10.60
2023-01-08T05:43:32.247Z,10.40
2023-01-08T05:46:01.066Z,10.40
2023-01-08T05:48:30.306Z,10.40
2023-01-08T05:50:57.130Z,10.30
2023-01-08T05:53:24.334Z,10.30
2023-01-08T05:55:51.240Z,10.20
2023-01-08T05:58:19.288Z,10.10
2023-01-08T06:00:47.097Z,10.00
2023-01-08T06:03:14.851Z,10.00
2023-01-08T06:05:41.907Z,8.80
2023-01-08T06:08:08.940Z,9.70
2023-01-08T06:10:38.588Z,9.60
2023-01-08T06:13:10.365Z,9.50
2023-01-08T06:15:40.451Z,9.40
2023-01-08T06:18:07.759Z,9.40
2023-01-08T06:20:34.683Z,9.30
2023-01-08T06:23:01.609Z,9.20
2023-01-08T06:25:29.729Z,9.10
2023-01-08T06:27:56.730Z,9.00
2023-01-08T06:30:23.680Z,9.00
2023-01-08T06:32:55.065Z,8.90
2023-01-08T06:35:21.958Z,10.50
2023-01-08T06:37:48.852Z,10.60
2023-01-08T06:40:15.929Z,8.70
2023-01-08T06:42:44.131Z,8.50
2023-01-08T06:45:12.008Z,8.60
2023-01-08T06:47:39.009Z,8.50
2023-01-08T06:50:06.874Z,9.30
2023-01-08T06:52:33.888Z,8.50
2023-01-08T06:55:00.923Z,8.40
2023-01-08T06:57:27.781Z,8.40
2023-01-08T06:59:55.528Z,8.30
2023-01-08T07:02:24.715Z,9.60
2023-01-08T07:04:52.512Z,8.20
2023-01-08T07:07:19.343Z,8.20
2023-01-08T07:09:46.469Z,8.20
2023-01-08T07:12:14.201Z,8.20
2023-01-08T07:14:41.860Z,8.20
2023-01-08T07:17:09.003Z,8.20
2023-01-08T07:19:35.970Z,8.60
2023-01-08T07:22:03.164Z,8.20
2023-01-08T07:24:30.070Z,8.20
2023-01-08T07:26:57.318Z,8.20
2023-01-08T07:29:24.279Z,8.20
2023-01-08T07:31:51.116Z,8.20
2023-01-08T07:34:18.128Z,8.20
2023-01-08T07:36:44.994Z,9.50
2023-01-08T07:39:11.959Z,8.20
2023-01-08T07:41:38.791Z,8.20
2023-01-08T07:44:05.998Z,8.20
2023-01-08T07:46:32.969Z,8.10
2023-01-08T07:48:59.847Z,8.10
2023-01-08T07:51:26.854Z,8.10
2023-01-08T07:53:56.115Z,8.00
2023-01-08T07:56:25.025Z,8.00
2023-01-08T07:58:52.241Z,7.90
2023-01-08T08:01:20.275Z,9.30
2023-01-08T08:03:47.181Z,7.90
2023-01-08T08:06:14.280Z,7.90
2023-01-08T08:08:42.299Z,7.80
2023-01-08T08:11:09.764Z,7.90
2023-01-08T08:13:36.902Z,7.80
2023-01-08T08:16:05.704Z,9.20
2023-01-08T08:18:32.744Z,7.90
2023-01-08T08:20:59.716Z,7.90
2023-01-08T08:23:26.649Z,7.90
2023-01-08T08:25:53.665Z,8.00
2023-01-08T08:28:20.983Z,9.10
2023-01-08T08:30:47.942Z,8.10
2023-01-08T08:33:14.894Z,8.20
2023-01-08T08:35:47.671Z,10.40
2023-01-08T08:38:16.513Z,8.40
2023-01-08T08:40:44.138Z,9.20
2023-01-08T08:43:11.182Z,8.50
2023-01-08T08:45:38.410Z,8.50
2023-01-08T08:48:09.407Z,8.50
2023-01-08T08:50:36.488Z,8.50
2023-01-08T08:53:06.096Z,8.50
2023-01-08T08:55:35.020Z,8.50
2023-01-08T08:58:28.407Z,8.60
2023-01-08T09:00:55.385Z,8.60
2023-01-08T09:03:23.197Z,8.60
2023-01-08T09:05:50.181Z,8.60
2023-01-08T09:08:17.069Z,8.60
2023-01-08T09:10:43.979Z,10.30
2023-01-08T09:13:12.090Z,9.60
2023-01-08T09:15:40.105Z,10.40
2023-01-08T09:18:07.117Z,9.70
2023-01-08T09:20:34.163Z,8.90
2023-01-08T09:23:03.103Z,8.50
2023-01-08T09:25:30.826Z,8.60
2023-01-08T09:28:04.170Z,10.00
2023-01-08T09:30:31.666Z,10.30
2023-01-08T09:33:02.751Z,8.60
2023-01-08T09:35:31.687Z,8.60
2023-01-08T09:37:58.999Z,8.60
2023-01-08T09:40:35.513Z,8.70
2023-01-08T09:43:06.124Z,10.00
2023-01-08T09:45:39.487Z,8.70
2023-01-08T09:48:14.118Z,10.50
2023-01-08T09:50:41.267Z,8.80
2023-01-08T09:53:15.446Z,10.30
2023-01-08T09:55:43.539Z,8.90
2023-01-08T09:58:39.448Z,9.00
2023-01-08T10:01:10.294Z,9.00
2023-01-08T10:03:44.543Z,9.10
2023-01-08T10:06:14.537Z,9.20
2023-01-08T10:08:42.364Z,9.20
2023-01-08T10:11:13.004Z,9.20
2023-01-08T10:13:43.953Z,9.30
2023-01-08T10:16:30.432Z,9.70
2023-01-08T10:18:59.945Z,11.10
2023-01-08T10:21:39.179Z,9.40
2023-01-08T10:24:07.136Z,10.80
2023-01-08T10:26:37.603Z,9.60
2023-01-08T10:29:15.094Z,8.40
2023-01-08T10:31:55.360Z,9.80
2023-01-08T10:34:33.230Z,9.90
2023-01-08T10:37:00.921Z,9.90
2023-01-08T10:39:30.867Z,11.80
2023-01-08T10:42:06.517Z,10.00
2023-01-08T10:44:35.922Z,10.10
2023-01-08T10:47:05.323Z,11.60
2023-01-08T10:49:41.927Z,10.20
2023-01-08T10:52:32.820Z,10.30
2023-01-08T10:55:25.233Z,10.50
2023-01-08T10:58:05.369Z,10.70
2023-01-08T11:00:35.758Z,10.80
2023-01-08T11:03:20.492Z,10.90
2023-01-08T11:05:47.670Z,10.90
2023-01-08T11:08:22.924Z,12.40
2023-01-08T11:11:02.729Z,11.10
2023-01-08T11:13:30.387Z,11.10
2023-01-08T11:16:10.657Z,11.50
2023-01-08T11:18:49.497Z,11.30
2023-01-08T11:21:36.275Z,13.10
2023-01-08T11:24:22.620Z,11.50
2023-01-08T11:26:57.709Z,11.60
2023-01-08T11:29:38.825Z,11.70
2023-01-08T11:32:42.086Z,11.80
2023-01-08T11:35:20.254Z,11.90
2023-01-08T11:38:00.140Z,12.00
2023-01-08T11:41:14.653Z,12.10
2023-01-08T11:44:04.858Z,12.10
2023-01-08T11:46:54.650Z,12.20
2023-01-08T11:49:56.442Z,12.20
2023-01-08T11:52:45.437Z,12.20
2023-01-08T11:55:41.372Z,12.20
2023-01-08T11:58:23.149Z,12.30
2023-01-08T12:01:03.808Z,13.50
2023-01-08T12:04:07.854Z,12.30
2023-01-08T12:06:40.583Z,12.30
2023-01-08T12:09:31.628Z,12.40
2023-01-08T12:12:35.538Z,12.40
2023-01-08T12:15:39.692Z,12.50
2023-01-08T12:18:40.428Z,12.60
2023-01-08T12:21:50.829Z,12.60
2023-01-08T12:24:33.889Z,12.60
2023-01-08T12:27:48.330Z,12.60
2023-01-08T12:30:31.354Z,12.60
2023-01-08T12:33:09.698Z,12.60
2023-01-08T12:35:48.428Z,12.70
2023-01-08T12:38:39.926Z,13.20
2023-01-08T12:41:15.083Z,12.80
2023-01-08T12:44:04.932Z,12.80
2023-01-08T12:46:37.936Z,12.80
2023-01-08T12:49:08.017Z,12.80
2023-01-08T12:52:15.773Z,12.80
2023-01-08T12:55:03.635Z,14.50
2023-01-08T12:58:02.334Z,12.90
2023-01-08T13:00:54.294Z,13.00
2023-01-08T13:03:28.542Z,12.90
2023-01-08T13:06:08.660Z,12.90
2023-01-08T13:08:40.146Z,12.90
2023-01-08T13:11:08.573Z,15.60
2023-01-08T13:13:45.009Z,12.90
2023-01-08T13:16:11.846Z,12.90
2023-01-08T13:18:39.240Z,12.90
2023-01-08T13:21:11.763Z,13.20
2023-01-08T13:23:39.007Z,12.90
2023-01-08T13:26:07.598Z,14.80
2023-01-08T13:28:37.256Z,12.90
2023-01-08T13:31:22.707Z,12.90
2023-01-08T13:33:54.647Z,13.10
2023-01-08T13:36:27.395Z,14.40
2023-01-08T13:39:11.610Z,12.90
2023-01-08T13:41:58.084Z,12.90
2023-01-08T13:44:32.144Z,12.90
2023-01-08T13:47:04.408Z,14.50
2023-01-08T13:49:44.948Z,14.80
2023-01-08T13:52:48.941Z,14.30
2023-01-08T13:55:29.422Z,12.80
2023-01-08T13:58:02.769Z,12.80
2023-01-08T14:00:43.490Z,12.70
2023-01-08T14:03:26.835Z,12.60
2023-01-08T14:06:17.434Z,12.50
2023-01-08T14:08:59.930Z,12.40
2023-01-08T14:11:47.009Z,12.30
2023-01-08T14:14:17.918Z,12.30
2023-01-08T14:16:47.457Z,12.30
2023-01-08T14:19:24.422Z,13.50
2023-01-08T14:21:55.988Z,12.10
2023-01-08T14:24:25.757Z,12.90
2023-01-08T14:26:58.891Z,14.10
2023-01-08T14:29:34.507Z,12.10
2023-01-08T14:32:01.666Z,12.10
2023-01-08T14:34:31.877Z,12.10
2023-01-08T14:36:58.977Z,12.00
2023-01-08T14:39:31.856Z,13.80
2023-01-08T14:42:26.673Z,12.00
2023-01-08T14:45:03.026Z,11.90
2023-01-08T14:47:39.542Z,11.90
2023-01-08T14:50:15.758Z,11.90
2023-01-08T14:52:42.675Z,11.80
2023-01-08T14:55:18.568Z,12.90
2023-01-08T14:57:53.217Z,12.90
2023-01-08T15:00:27.016Z,11.70
2023-01-08T15:02:54.946Z,11.70
2023-01-08T15:05:31.001Z,11.60
2023-01-08T15:08:32.380Z,11.60
2023-01-08T15:11:19.843Z,11.50
2023-01-08T15:13:49.737Z,11.40
2023-01-08T15:16:38.738Z,11.40
2023-01-08T15:19:17.837Z,11.30
2023-01-08T15:21:50.791Z,11.20
2023-01-08T15:24:31.450Z,11.20
2023-01-08T15:27:09.686Z,11.90
2023-01-08T15:30:00.959Z,11.00
2023-01-08T15:32:34.089Z,10.90
2023-01-08T15:35:02.006Z,12.70
2023-01-08T15:37:30.358Z,13.10
2023-01-08T15:39:57.285Z,12.60
2023-01-08T15:42:51.540Z,10.70
2023-01-08T15:45:31.872Z,10.70
2023-01-08T15:47:58.880Z,11.60
2023-01-08T15:50:28.487Z,12.80
2023-01-08T15:53:01.021Z,10.50
2023-01-08T15:55:28.284Z,10.50
2023-01-08T15:58:20.042Z,10.40
2023-01-08T16:00:47.092Z,12.10
2023-01-08T16:03:15.413Z,10.30
2023-01-08T16:05:42.393Z,10.30
2023-01-08T16:08:10.831Z,11.70
2023-01-08T16:10:38.220Z,11.30
2023-01-08T16:13:05.485Z,10.30
2023-01-08T16:15:32.578Z,11.90
2023-01-08T16:18:00.728Z,10.20
2023-01-08T16:20:27.756Z,10.20
2023-01-08T16:22:55.100Z,11.90
2023-01-08T16:25:23.432Z,10.20
2023-01-08T16:27:50.621Z,10.80
2023-01-08T16:30:18.376Z,10.30
2023-01-08T16:32:46.650Z,11.20
2023-01-08T16:35:13.592Z,10.40
2023-01-08T16:37:40.614Z,10.50
2023-01-08T16:40:09.439Z,11.60
2023-01-08T16:42:36.891Z,10.60
2023-01-08T16:45:05.456Z,10.60
2023-01-08T16:47:38.291Z,10.70
2023-01-08T16:50:06.538Z,10.70
2023-01-08T16:52:33.568Z,10.80
2023-01-08T16:55:00.411Z,10.80
2023-01-08T16:57:27.328Z,10.80
2023-01-08T16:59:54.123Z,10.80
2023-01-08T17:02:22.649Z,10.80
2023-01-08T17:04:49.479Z,10.80
2023-01-08T17:07:16.513Z,10.70
2023-01-08T17:09:43.609Z,10.60
2023-01-08T17:12:10.456Z,10.50
2023-01-08T17:14:37.242Z,10.40
2023-01-08T17:17:04.213Z,10.30
2023-01-08T17:19:31.112Z,10.20
2023-01-08T17:21:58.036Z,10.10
2023-01-08T17:24:24.923Z,10.00
2023-01-08T17:26:51.811Z,9.90
2023-01-08T17:29:18.639Z,9.90
2023-01-08T17:31:45.692Z,9.80
2023-01-08T17:34:14.182Z,10.10
2023-01-08T17:36:41.349Z,9.60
2023-01-08T17:39:08.282Z,9.60
2023-01-08T17:41:54.710Z,9.50
2023-01-08T17:44:22.538Z,9.50
2023-01-08T17:46:49.504Z,11.10
2023-01-08T17:49:17.500Z,9.40
2023-01-08T17:51:46.127Z,9.60
2023-01-08T17:54:16.989Z,11.90
2023-01-08T17:56:44.511Z,9.30
2023-01-08T17:59:16.472Z,9.30
2023-01-08T18:01:45.790Z,9.30
2023-01-08T18:04:14.746Z,9.20
2023-01-08T18:06:42.424Z,9.50
2023-01-08T18:09:11.945Z,9.10
2023-01-08T18:11:41.253Z,9.10
2023-01-08T18:14:11.311Z,9.00
2023-01-08T18:16:38.854Z,10.90
2023-01-08T18:19:06.645Z,10.50
2023-01-08T18:21:33.517Z,9.00
2023-01-08T18:24:00.347Z,11.30
2023-01-08T18:26:28.295Z,9.10
2023-01-08T18:28:55.680Z,9.10
2023-01-08T18:31:23.403Z,9.10
2023-01-08T18:33:52.548Z,11.30
2023-01-08T18:36:20.455Z,9.00
2023-01-08T18:38:48.833Z,9.00
2023-01-08T18:41:38.834Z,10.60
2023-01-08T18:44:09.103Z,8.90
2023-01-08T18:46:36.898Z,8.90
2023-01-08T18:49:05.013Z,8.80
2023-01-08T18:51:33.128Z,9.20
2023-01-08T18:54:00.160Z,8.80
2023-01-08T18:56:33.875Z,8.70
2023-01-08T18:59:01.912Z,8.70
2023-01-08T19:01:29.552Z,8.80
2023-01-08T19:03:57.354Z,8.80
2023-01-08T19:06:24.670Z,8.70
2023-01-08T19:08:52.640Z,8.80
2023-01-08T19:11:20.161Z,8.80
2023-01-08T19:13:47.129Z,8.80
2023-01-08T19:16:17.168Z,8.90
2023-01-08T19:18:44.342Z,8.90
2023-01-08T19:21:14.712Z,8.90
2023-01-08T19:23:41.638Z,9.00
2023-01-08T19:26:09.401Z,9.00
2023-01-08T19:28:37.171Z,8.50
2023-01-08T19:31:04.316Z,9.00
2023-01-08T19:33:31.539Z,9.00
2023-01-08T19:36:08.592Z,9.00
2023-01-08T19:38:35.523Z,9.00
2023-01-08T19:41:03.229Z,9.00
2023-01-08T19:43:42.643Z,9.00
2023-01-08T19:46:15.349Z,9.00
2023-01-08T19:48:43.955Z,9.00
2023-01-08T19:51:12.881Z,9.00
2023-01-08T19:53:40.655Z,11.10
2023-01-08T19:56:13.003Z,9.20
2023-01-08T19:58:40.315Z,9.20
2023-01-08T20:01:17.027Z,10.20
2023-01-08T20:03:45.005Z,9.30
2023-01-08T20:06:20.288Z,9.40
2023-01-08T20:08:57.023Z,9.40
2023-01-08T20:11:26.077Z,9.50
2023-01-08T20:13:55.531Z,9.50
2023-01-08T20:16:24.675Z,9.60
2023-01-08T20:18:55.628Z,9.60
2023-01-08T20:21:23.919Z,9.60
2023-01-08T20:23:59.153Z,9.60
2023-01-08T20:26:28.800Z,9.60
2023-01-08T20:28:57.821Z,9.60
2023-01-08T20:31:32.736Z,9.60
2023-01-08T20:34:03.631Z,9.60
2023-01-08T20:36:34.939Z,9.50
2023-01-08T20:39:09.768Z,9.40
2023-01-08T20:41:37.030Z,9.40
2023-01-08T20:44:06.814Z,9.30
2023-01-08T20:46:36.259Z,9.20
2023-01-08T20:49:07.605Z,9.70
2023-01-08T20:51:38.125Z,9.20
2023-01-08T20:54:09.002Z,9.20
2023-01-08T20:56:35.854Z,9.20
2023-01-08T20:59:03.062Z,9.20
2023-01-08T21:01:33.679Z,9.20
2023-01-08T21:04:03.267Z,9.20
2023-01-08T21:06:33.460Z,9.30
2023-01-08T21:09:07.716Z,9.30
2023-01-08T21:11:38.001Z,9.40
2023-01-08T21:14:07.999Z,9.50
2023-01-08T21:16:36.784Z,9.40
2023-01-08T21:19:04.058Z,9.50
2023-01-08T21:21:39.061Z,10.00
2023-01-08T21:24:09.367Z,9.60
2023-01-08T21:26:39.038Z,9.70
2023-01-08T21:29:08.836Z,12.20
2023-01-08T21:31:37.515Z,9.80
2023-01-08T21:34:07.149Z,9.90
2023-01-08T21:36:34.458Z,9.90
2023-01-08T21:39:01.946Z,10.00
2023-01-08T21:41:48.790Z,10.10
2023-01-08T21:44:40.178Z,10.60
2023-01-08T21:47:13.636Z,10.20
2023-01-08T21:49:41.024Z,10.20
2023-01-08T21:52:26.665Z,12.70
2023-01-08T21:54:54.224Z,10.30
2023-01-08T21:57:21.549Z,10.30
2023-01-08T21:59:50.296Z,10.40
2023-01-08T22:02:20.674Z,10.40
2023-01-08T22:04:49.084Z,10.40
2023-01-08T22:07:17.156Z,10.50
2023-01-08T22:09:44.152Z,12.80
2023-01-08T22:12:11.361Z,12.50
2023-01-08T22:14:38.366Z,10.50
2023-01-08T22:17:08.306Z,13.00
2023-01-08T22:19:39.093Z,10.50
2023-01-08T22:22:10.151Z,10.50
2023-01-08T22:24:37.807Z,10.50
2023-01-08T22:27:04.660Z,10.50
2023-01-08T22:29:31.698Z,12.80
2023-01-08T22:31:58.626Z,10.50
2023-01-08T22:34:25.705Z,10.50
2023-01-08T22:36:53.234Z,12.50
2023-01-08T22:39:20.249Z,10.60
2023-01-08T22:41:47.220Z,10.70
2023-01-08T22:44:14.841Z,10.60
2023-01-08T22:46:42.233Z,10.60
2023-01-08T22:49:13.564Z,10.60
2023-01-08T22:51:43.489Z,10.50
2023-01-08T22:54:13.799Z,10.40
2023-01-08T22:56:41.022Z,10.30
2023-01-08T22:59:08.252Z,10.20
2023-01-08T23:01:35.509Z,10.10
2023-01-08T23:04:03.417Z,10.00
2023-01-08T23:06:31.655Z,9.90
2023-01-08T23:08:59.878Z,10.80
2023-01-08T23:11:27.654Z,9.70
2023-01-08T23:13:55.183Z,9.70
2023-01-08T23:16:25.310Z,9.60
2023-01-08T23:18:56.409Z,9.60
2023-01-08T23:21:26.425Z,9.50
2023-01-08T23:23:53.511Z,9.50
2023-01-08T23:26:29.030Z,9.50
2023-01-08T23:28:58.063Z,9.40
2023-01-08T23:31:28.816Z,9.40
2023-01-08T23:33:56.033Z,9.30
2023-01-08T23:36:23.970Z,9.30
2023-01-08T23:38:54.705Z,9.30
2023-01-08T23:41:32.003Z,9.20
2023-01-08T23:44:11.787Z,9.20
2023-01-08T23:46:38.790Z,9.10
2023-01-08T23:49:07.228Z,9.10
2023-01-08T23:51:34.733Z,9.00
2023-01-08T23:54:01.939Z,9.00
2023-01-08T23:56:29.138Z,9.00
2023-01-08T23:58:57.843Z,11.10
